Time;durP1;ratioP1;P1;durP2;ratioP2;P2;SDS_P1;SDS_P2;PMS_P1;PMS_P2;Temp;Humidity;BMP_temperature;BMP_pressure;BME280_temperature;BME280_humidity;BME280_pressure;Samples;Min_cycle;Max_cycle;Signal;HPM_P1;HPM_P2
2022/01/26 00:07:52;;;;;;;14.27;6.10;;;;;;;2.43;69.48;98618.13;4930847;28;20213;-88
2022/01/26 00:10:18;;;;;;;17.15;7.55;;;;;;;2.52;69.87;98620.69;4934886;28;20231;-88
2022/01/26 00:12:43;;;;;;;14.23;6.57;;;;;;;2.56;69.58;98616.88;4918651;28;20107;-88
2022/01/26 00:15:10;;;;;;;24.00;7.72;;;;;;;2.47;69.11;98617.78;4956477;28;20166;-88
2022/01/26 00:17:35;;;;;;;36.55;8.02;;;;;;;2.42;69.61;98620.84;4907709;28;20209;-88
2022/01/26 00:20:16;;;;;;;33.95;9.02;;;;;;;2.39;68.78;98621.16;4939558;28;20173;-89
2022/01/26 00:22:54;;;;;;;25.33;8.55;;;;;;;2.35;68.73;98615.53;4934481;28;20260;-88
2022/01/26 00:38:42;;;;;;;;;;;;;;;;;;;;;
2022/01/26 00:41:10;;;;;;;26.80;6.63;;;;;;;2.28;68.71;98619.69;4943892;28;20196;-88
2022/01/26 00:43:42;;;;;;;26.08;9.25;;;;;;;2.17;69.67;98609.69;4921123;28;20152;-89
2022/01/26 00:46:08;;;;;;;30.50;8.45;;;;;;;2.25;69.38;98602.00;4963467;28;20479;-89
2022/01/26 00:48:36;;;;;;;29.17;7.82;;;;;;;2.26;69.64;98616.44;4919594;28;20286;-89
2022/01/26 00:51:04;;;;;;;18.33;7.70;;;;;;;2.22;69.52;98607.44;4935155;28;20162;-89
2022/01/26 00:53:37;;;;;;;18.25;8.10;;;;;;;2.15;69.76;98603.91;4944588;28;20087;-89
2022/01/26 00:56:04;;;;;;;28.63;8.82;;;;;;;2.26;69.35;98616.44;4937330;28;20092;-89
2022/01/26 00:58:30;;;;;;;22.88;8.70;;;;;;;2.31;69.32;98618.56;4938753;28;20200;-88
2022/01/26 01:00:58;;;;;;;28.08;9.00;;;;;;;2.33;68.73;98625.16;4937613;28;20266;-89
2022/01/26 01:03:23;;;;;;;25.17;8.32;;;;;;;2.14;69.24;98608.25;4935704;28;20193;-88
2022/01/26 01:05:56;;;;;;;33.13;9.30;;;;;;;2.16;68.59;98605.50;4953397;28;20227;-89
2022/01/26 01:08:24;;;;;;;24.75;7.63;;;;;;;2.27;68.86;98617.28;4958370;28;20205;-88
2022/01/26 01:10:51;;;;;;;22.08;8.07;;;;;;;2.18;69.14;98609.53;4940984;28;20176;-89
2022/01/26 01:13:32;;;;;;;21.90;8.60;;;;;;;2.19;68.29;98616.28;4941398;28;20641;-88
2022/01/26 01:15:57;;;;;;;17.38;7.45;;;;;;;2.24;69.12;98613.22;4935139;28;20109;-88
2022/01/26 01:18:39;;;;;;;24.05;7.82;;;;;;;2.24;69.41;98611.50;4928332;28;20243;-89
2022/01/26 01:31:16;;;;;;;23.83;8.60;;;;;;;2.02;69.42;98622.28;4939659;28;20204;-89
2022/01/26 01:33:45;;;;;;;21.63;8.38;;;;;;;2.00;69.64;98630.16;4956957;28;20278;-89
2022/01/26 01:36:12;;;;;;;20.77;8.02;;;;;;;2.06;69.80;98626.19;4937467;28;20510;-88
2022/01/26 01:38:41;;;;;;;26.65;9.57;;;;;;;2.13;69.79;98623.81;4945823;28;20192;-89
2022/01/26 01:41:06;;;;;;;24.48;9.65;;;;;;;2.18;69.26;98611.31;4916247;28;20637;-89
2022/01/26 01:43:32;;;;;;;35.42;9.57;;;;;;;2.11;69.38;98613.69;4938538;28;20274;-89
2022/01/26 01:45:57;;;;;;;33.08;9.02;;;;;;;2.05;68.38;98622.78;4937245;28;20666;-89
2022/01/26 01:48:30;;;;;;;28.23;8.52;;;;;;;1.93;68.85;98620.66;4941016;28;20212;-89
2022/01/26 01:50:58;;;;;;;23.60;8.57;;;;;;;1.97;68.55;98625.34;4930707;28;20200;-89
2022/01/26 01:53:38;;;;;;;33.40;8.15;;;;;;;1.81;68.77;98609.84;4936196;28;20192;-89
2022/01/26 01:56:06;;;;;;;67.60;8.93;;;;;;;1.82;68.82;98614.03;4939463;28;20165;-89
2022/01/26 01:58:32;;;;;;;54.55;9.20;;;;;;;1.66;69.14;98607.84;4950207;28;20252;-89
2022/01/26 02:01:00;;;;;;;21.90;5.78;;;;;;;1.49;68.85;98596.66;4951794;28;20387;-88
2022/01/26 02:03:26;;;;;;;22.80;6.97;;;;;;;1.62;69.42;98614.22;4926240;28;20193;-89
2022/01/26 02:05:52;;;;;;;18.65;6.97;;;;;;;1.62;70.06;98619.34;4937371;28;20188;-88
2022/01/26 02:08:18;;;;;;;18.83;8.48;;;;;;;1.59;70.24;98593.97;4938796;28;20149;-89
2022/01/26 02:10:44;;;;;;;22.92;8.10;;;;;;;1.55;69.81;98591.88;4936510;28;20279;-89
2022/01/26 02:13:20;;;;;;;23.88;9.85;;;;;;;1.76;70.11;98622.31;4937374;28;20286;-88
2022/01/26 02:16:03;;;;;;;25.38;8.18;;;;;;;1.75;70.19;98613.00;4934872;28;20205;-89
2022/01/26 02:56:11;;;;;;;21.37;8.77;;;;;;;1.85;70.26;98631.66;4939016;28;20374;-89
2022/01/26 03:03:56;;;;;;;31.40;9.32;;;;;;;1.81;70.06;98614.97;4972022;28;20250;-89
2022/01/26 03:06:30;;;;;;;21.13;8.40;;;;;;;1.82;70.47;98619.16;4938797;28;20200;-89
2022/01/26 03:09:01;;;;;;;23.92;7.90;;;;;;;1.96;70.05;98626.28;4954558;28;20208;-89
2022/01/26 03:11:29;;;;;;;18.85;7.57;;;;;;;1.94;69.42;98622.28;4923428;28;20308;-89
2022/01/26 03:14:05;;;;;;;23.85;8.30;;;;;;;1.89;70.08;98616.78;4911777;28;20161;-89
2022/01/26 03:16:40;;;;;;;23.10;8.88;;;;;;;1.98;69.58;98613.28;4936680;28;20263;-89
2022/01/26 03:30:20;;;;;;;22.67;8.23;;;;;;;1.91;69.04;98617.44;4955829;28;20494;-89
2022/01/26 03:35:41;;;;;;;17.50;7.20;;;;;;;1.91;68.81;98600.25;4956462;28;20297;-89
2022/01/26 03:38:16;;;;;;;22.60;8.75;;;;;;;1.86;69.37;98597.34;4953028;28;20272;-89
2022/01/26 03:40:43;;;;;;;21.00;7.68;;;;;;;1.82;69.71;98603.75;4918404;28;20181;-89
2022/01/26 03:43:08;;;;;;;19.52;7.45;;;;;;;1.84;69.81;98604.41;4937979;28;20283;-89
2022/01/26 03:45:33;;;;;;;22.13;7.45;;;;;;;1.81;69.88;98607.25;4936412;28;20182;-89
2022/01/26 03:47:59;;;;;;;21.05;9.68;;;;;;;1.74;69.37;98603.69;4939313;28;20216;-89
2022/01/26 03:50:25;;;;;;;18.25;7.15;;;;;;;1.67;70.10;98614.56;4942461;28;20208;-89
2022/01/26 03:52:50;;;;;;;20.00;8.48;;;;;;;1.77;69.89;98618.81;4940637;28;20639;-89
2022/01/26 03:55:16;;;;;;;20.83;8.63;;;;;;;1.79;70.18;98612.56;4940487;28;20192;-89
2022/01/26 03:57:41;;;;;;;17.45;7.40;;;;;;;1.73;70.11;98596.94;4938910;28;20717;-89
2022/01/26 04:00:08;;;;;;;23.65;8.38;;;;;;;1.72;70.13;98626.97;4926414;28;20784;-89
2022/01/26 04:02:36;;;;;;;25.77;9.18;;;;;;;1.77;69.55;98621.38;4923872;28;20248;-89
2022/01/26 04:05:07;;;;;;;20.13;7.50;;;;;;;1.84;69.32;98610.34;4940068;28;20187;-89
2022/01/26 04:07:32;;;;;;;22.58;7.38;;;;;;;1.83;68.97;98611.31;4915002;28;20225;-89
2022/01/26 04:10:05;;;;;;;19.63;8.18;;;;;;;1.79;69.35;98612.56;4939037;28;20626;-88
2022/01/26 04:12:33;;;;;;;21.45;8.00;;;;;;;1.83;69.46;98621.56;4917757;28;20650;-89
2022/01/26 04:15:06;;;;;;;19.08;8.23;;;;;;;1.72;69.35;98621.03;4937098;28;20099;-89
2022/01/26 04:17:31;;;;;;;19.02;8.10;;;;;;;1.85;69.27;98616.25;4924653;28;20338;-89
2022/01/26 04:19:58;;;;;;;20.08;8.23;;;;;;;1.85;68.92;98618.84;4938083;28;20717;-89
2022/01/26 04:22:34;;;;;;;15.75;7.30;;;;;;;1.79;69.15;98614.31;4922746;28;20079;-89
2022/01/26 04:25:01;;;;;;;17.77;7.35;;;;;;;1.79;69.48;98625.38;4939889;28;20298;-89
2022/01/26 04:29:57;;;;;;;20.10;7.55;;;;;;;1.69;68.89;98629.81;4971005;28;20290;-89
2022/01/26 04:32:24;;;;;;;16.25;6.45;;;;;;;1.65;69.54;98619.06;4957574;28;20232;-88
2022/01/26 04:34:49;;;;;;;21.38;8.70;;;;;;;1.79;69.21;98620.25;4953708;28;20218;-88
2022/01/26 04:37:54;;;;;;;19.85;8.25;;;;;;;1.64;69.46;98607.16;4949465;28;20670;-89
2022/01/26 04:40:19;;;;;;;22.42;8.23;;;;;;;1.76;69.50;98622.31;4952170;28;20189;-88
2022/01/26 04:43:01;;;;;;;23.23;7.68;;;;;;;1.80;69.84;98615.91;4933743;28;20158;-89
2022/01/26 04:45:26;;;;;;;20.20;7.78;;;;;;;1.82;69.38;98622.53;4948372;28;20177;-88
2022/01/26 04:47:52;;;;;;;19.77;6.90;;;;;;;1.69;69.38;98604.94;4939298;28;20725;-89
2022/01/26 04:50:17;;;;;;;21.65;7.63;;;;;;;1.69;69.43;98612.66;4935746;28;20282;-88
2022/01/26 04:52:45;;;;;;;20.60;8.10;;;;;;;1.56;69.45;98602.00;4923276;28;20165;-89
2022/01/26 04:55:11;;;;;;;26.10;9.15;;;;;;;1.64;69.15;98614.88;4918781;28;20659;-89
2022/01/26 04:57:36;;;;;;;21.92;7.63;;;;;;;1.68;69.81;98629.03;4928315;28;20204;-89
2022/01/26 05:00:04;;;;;;;25.92;8.70;;;;;;;1.58;69.43;98607.78;4937416;28;20188;-88
2022/01/26 05:02:29;;;;;;;20.55;7.40;;;;;;;1.73;69.84;98614.91;4939191;28;20650;-89
2022/01/26 05:04:55;;;;;;;22.58;8.63;;;;;;;1.74;69.86;98613.97;4923379;28;20184;-89
2022/01/26 05:07:20;;;;;;;20.08;7.53;;;;;;;1.74;69.30;98621.69;4934394;28;20230;-89
2022/01/26 05:09:47;;;;;;;22.15;8.25;;;;;;;1.60;69.33;98608.44;4917281;28;20299;-88
2022/01/26 05:12:14;;;;;;;20.65;7.70;;;;;;;1.67;68.70;98611.19;4937511;28;20759;-88
2022/01/26 05:14:42;;;;;;;21.65;6.85;;;;;;;1.58;69.05;98607.78;4928492;28;20068;-89
2022/01/26 05:17:08;;;;;;;17.25;6.50;;;;;;;1.74;69.72;98622.47;4927275;28;20217;-89
2022/01/26 05:19:33;;;;;;;16.08;6.72;;;;;;;1.73;69.32;98609.78;4934987;28;20264;-89
2022/01/26 05:22:01;;;;;;;17.33;7.13;;;;;;;1.79;68.75;98617.69;4938206;28;20216;-89
2022/01/26 05:24:27;;;;;;;16.15;6.50;;;;;;;1.77;69.19;98608.53;4937954;28;20170;-88
2022/01/26 05:26:52;;;;;;;17.05;6.57;;;;;;;1.76;70.02;98594.06;4952908;28;20246;-89
2022/01/26 05:29:18;;;;;;;16.85;7.13;;;;;;;1.77;69.70;98585.44;4952861;28;20352;-89
2022/01/26 05:31:44;;;;;;;22.85;6.65;;;;;;;1.68;69.21;98595.66;4931149;28;20282;-89
2022/01/26 05:34:10;;;;;;;25.80;6.72;;;;;;;1.66;69.07;98579.59;4971549;28;20177;-89
2022/01/26 05:36:36;;;;;;;13.48;6.70;;;;;;;1.79;68.75;98584.31;4936644;28;20724;-89
2022/01/26 05:39:03;;;;;;;15.32;6.88;;;;;;;1.76;69.90;98594.06;4951350;28;20294;-89
2022/01/26 05:41:28;;;;;;;20.65;7.78;;;;;;;2.05;68.94;98588.59;4934129;28;20196;-89
2022/01/26 05:43:54;;;;;;;20.30;7.53;;;;;;;1.98;68.65;98583.25;4935889;28;20195;-89
2022/01/26 05:46:41;;;;;;;18.65;7.95;;;;;;;1.92;68.27;98575.38;4930400;28;20643;-89
2022/01/26 05:49:07;;;;;;;18.63;6.97;;;;;;;2.02;68.48;98583.75;4922914;28;20697;-88
2022/01/26 05:51:33;;;;;;;21.33;7.15;;;;;;;1.95;68.75;98563.00;4927510;28;20196;-89
2022/01/26 05:53:59;;;;;;;19.13;7.28;;;;;;;1.98;69.23;98561.91;4935913;28;20282;-89
2022/01/26 05:56:25;;;;;;;19.98;8.07;;;;;;;1.87;69.09;98557.88;4952997;28;20211;-88
2022/01/26 05:58:55;;;;;;;18.80;7.68;;;;;;;1.98;68.61;98574.75;4952485;28;20650;-89
2022/01/26 06:01:21;;;;;;;19.23;7.28;;;;;;;2.02;68.82;98594.84;4935441;28;20193;-88
2022/01/26 06:03:47;;;;;;;20.00;7.32;;;;;;;1.93;68.94;98570.09;4936908;28;20199;-88
2022/01/26 06:06:12;;;;;;;22.88;8.30;;;;;;;2.01;69.32;98574.47;4940283;28;20664;-88
2022/01/26 06:08:38;;;;;;;24.00;8.98;;;;;;;1.97;69.65;98579.09;4935190;28;20208;-88
2022/01/26 06:11:04;;;;;;;19.17;8.85;;;;;;;2.05;68.94;98583.47;4932732;28;20723;-88
2022/01/26 06:13:29;;;;;;;20.75;8.50;;;;;;;2.05;69.13;98576.53;4934917;28;20277;-88
2022/01/26 06:15:55;;;;;;;20.55;8.55;;;;;;;2.05;68.95;98579.13;4935029;28;20199;-89
2022/01/26 06:18:20;;;;;;;22.13;8.68;;;;;;;2.17;68.58;98576.28;4934711;28;20188;-89
2022/01/26 06:20:46;;;;;;;23.10;9.77;;;;;;;2.08;68.16;98552.31;4918903;28;20419;-88
2022/01/26 06:23:12;;;;;;;20.80;7.68;;;;;;;2.03;68.97;98565.63;4930582;28;20718;-88
2022/01/26 06:25:37;;;;;;;18.20;7.93;;;;;;;2.04;68.89;98574.94;4923563;28;20205;-88
2022/01/26 06:28:07;;;;;;;21.70;8.93;;;;;;;2.18;68.92;98576.13;4948626;28;20589;-88
2022/01/26 06:30:33;;;;;;;22.20;8.23;;;;;;;2.09;68.81;98574.50;4968157;28;20307;-88
2022/01/26 06:32:58;;;;;;;28.80;8.85;;;;;;;2.11;68.28;98587.16;4933651;28;20216;-88
2022/01/26 06:35:24;;;;;;;24.05;8.48;;;;;;;2.19;68.45;98592.34;4951238;28;20220;-89
2022/01/26 06:37:50;;;;;;;25.83;9.00;;;;;;;2.14;68.35;98597.13;4951009;28;20208;-88
2022/01/26 06:40:15;;;;;;;21.73;8.00;;;;;;;2.09;68.50;98609.63;4967545;28;20183;-88
2022/01/26 06:42:54;;;;;;;21.75;7.97;;;;;;;2.02;68.66;98597.44;4933595;28;20338;-88
2022/01/26 06:45:24;;;;;;;22.17;8.98;;;;;;;2.04;68.20;98616.06;4935266;28;20193;-89
2022/01/26 06:50:35;;;;;;;21.77;8.60;;;;;;;1.97;68.41;98615.06;4951087;28;20116;-88
2022/01/26 06:53:00;;;;;;;28.60;9.23;;;;;;;1.98;67.78;98603.81;4935133;28;20182;-89
2022/01/26 06:55:26;;;;;;;25.98;8.55;;;;;;;2.01;68.37;98602.72;4950600;28;20180;-88
2022/01/26 06:57:51;;;;;;;22.60;8.75;;;;;;;2.03;69.15;98604.16;4932926;28;20286;-88
2022/01/26 07:00:17;;;;;;;21.38;8.15;;;;;;;2.08;69.11;98608.03;4931325;28;20352;-88
2022/01/26 07:02:43;;;;;;;19.73;8.25;;;;;;;2.00;68.73;98601.88;4931737;28;20214;-88
2022/01/26 07:05:12;;;;;;;24.75;10.60;;;;;;;1.98;68.76;98619.22;4934344;28;20204;-88
2022/01/26 07:07:38;;;;;;;21.95;9.52;;;;;;;2.06;68.68;98628.75;4933817;28;20166;-88
2022/01/26 07:10:04;;;;;;;24.20;8.60;;;;;;;1.98;68.80;98634.63;4930665;28;20194;-88
2022/01/26 07:12:30;;;;;;;20.63;8.65;;;;;;;1.89;68.59;98634.78;4966967;28;20351;-88
2022/01/26 07:23:03;;;;;;;23.92;8.95;;;;;;;1.75;68.97;98659.22;4968168;28;20245;-88
2022/01/26 07:25:29;;;;;;;32.30;9.13;;;;;;;1.65;69.95;98665.25;4917734;28;20235;-88
2022/01/26 07:27:58;;;;;;;25.90;8.90;;;;;;;1.62;69.94;98659.63;4933829;28;20249;-89
2022/01/26 07:30:24;;;;;;;27.08;9.02;;;;;;;1.66;69.85;98663.50;4938758;28;20635;-89
2022/01/26 07:32:49;;;;;;;19.20;8.43;;;;;;;1.57;69.69;98669.53;4940014;28;20290;-89
2022/01/26 07:35:15;;;;;;;24.42;9.48;;;;;;;1.65;70.07;98660.13;4917731;28;20211;-88
2022/01/26 07:37:43;;;;;;;27.40;9.23;;;;;;;1.60;69.22;98651.28;4907825;28;20197;-88
2022/01/26 07:40:09;;;;;;;21.20;8.70;;;;;;;1.66;69.71;98666.88;4940224;28;20162;-89
2022/01/26 07:42:36;;;;;;;26.13;9.10;;;;;;;1.81;69.29;98662.00;4914264;28;20221;-88
2022/01/26 07:45:03;;;;;;;19.50;7.75;;;;;;;1.73;69.38;98641.41;4927673;28;20605;-88
2022/01/26 07:47:31;;;;;;;27.27;9.60;;;;;;;1.80;69.41;98631.31;4932319;28;20166;-88
2022/01/26 07:49:58;;;;;;;25.95;9.10;;;;;;;1.89;69.67;98634.78;4933635;28;20173;-88
2022/01/26 07:52:25;;;;;;;26.30;9.50;;;;;;;1.83;69.90;98629.28;4941347;28;20267;-88
2022/01/26 07:54:52;;;;;;;27.35;9.45;;;;;;;1.92;69.63;98650.69;4934503;28;20196;-88
2022/01/26 07:57:18;;;;;;;24.85;9.13;;;;;;;2.01;69.47;98649.75;4933824;28;20196;-88
2022/01/26 07:59:44;;;;;;;23.55;9.23;;;;;;;2.03;69.26;98665.81;4933269;28;20228;-89
2022/01/26 08:02:09;;;;;;;21.25;8.98;;;;;;;1.94;69.51;98638.47;4933118;28;20754;-88
2022/01/26 08:04:34;;;;;;;24.92;9.80;;;;;;;2.02;69.06;98653.13;4933773;28;20650;-89
2022/01/26 08:07:00;;;;;;;23.38;8.52;;;;;;;1.95;69.17;98680.38;4933282;28;20720;-88
2022/01/26 08:09:25;;;;;;;24.02;10.07;;;;;;;1.92;69.39;98675.53;4933948;28;20091;-88
2022/01/26 08:11:51;;;;;;;22.38;8.45;;;;;;;1.88;69.59;98641.66;4931535;28;20635;-88
2022/01/26 08:14:16;;;;;;;28.25;9.63;;;;;;;1.97;69.11;98678.44;4933833;28;20406;-88
2022/01/26 08:16:42;;;;;;;24.48;9.32;;;;;;;1.95;69.47;98693.22;4933157;28;20212;-88
2022/01/26 08:19:08;;;;;;;20.50;8.07;;;;;;;2.03;69.53;98712.06;4911088;28;20175;-88
2022/01/26 08:21:34;;;;;;;25.85;10.48;;;;;;;2.08;69.27;98700.53;4932669;28;20584;-88
2022/01/26 08:24:03;;;;;;;20.88;8.43;;;;;;;2.02;69.73;98707.88;4934462;28;20264;-88
2022/01/26 08:26:39;;;;;;;25.58;9.30;;;;;;;2.05;69.95;98691.34;4934383;28;20221;-89
2022/01/26 08:29:11;;;;;;;21.63;8.75;;;;;;;2.02;69.30;98673.66;4933048;28;20647;-88
2022/01/26 08:31:37;;;;;;;26.58;10.57;;;;;;;2.18;69.13;98670.41;4934594;28;20207;-88
2022/01/26 08:34:02;;;;;;;26.17;9.95;;;;;;;2.12;69.33;98658.94;4935451;28;20294;-89
2022/01/26 08:36:27;;;;;;;25.48;9.60;;;;;;;2.11;68.72;98653.97;4935053;28;20290;-89
2022/01/26 08:38:53;;;;;;;25.75;9.05;;;;;;;2.18;68.92;98653.22;4936653;28;20641;-89
2022/01/26 08:41:19;;;;;;;20.33;8.75;;;;;;;2.21;69.58;98652.91;4937105;28;20196;-89
2022/01/26 08:43:44;;;;;;;26.73;9.48;;;;;;;2.24;69.24;98654.34;4953807;28;20199;-89
2022/01/26 08:46:09;;;;;;;21.90;7.80;;;;;;;2.16;69.24;98642.28;4930936;28;20224;-89
2022/01/26 08:48:35;;;;;;;26.50;9.23;;;;;;;2.25;68.71;98632.84;4932436;28;20193;-89
2022/01/26 08:51:00;;;;;;;23.92;8.15;;;;;;;2.33;68.88;98642.34;4946802;28;20653;-88
2022/01/26 08:53:25;;;;;;;27.13;8.55;;;;;;;2.29;69.57;98636.69;4952328;28;20204;-89
2022/01/26 08:55:51;;;;;;;27.58;8.35;;;;;;;2.33;68.85;98653.44;4934648;28;20680;-89
2022/01/26 08:58:19;;;;;;;26.10;9.02;;;;;;;2.34;68.74;98649.91;4942488;28;20262;-89
2022/01/26 09:00:45;;;;;;;22.45;8.57;;;;;;;2.35;68.83;98646.38;4951954;28;20170;-89
2022/01/26 09:03:10;;;;;;;21.42;8.02;;;;;;;2.34;69.10;98652.47;4949612;28;20248;-89
2022/01/26 09:05:37;;;;;;;25.35;8.60;;;;;;;2.33;68.51;98658.59;4915023;28;20190;-89
2022/01/26 09:08:04;;;;;;;23.95;8.98;;;;;;;2.29;68.72;98657.25;4934726;28;20227;-90
2022/01/26 09:10:33;;;;;;;24.52;9.60;;;;;;;2.22;69.31;98631.38;4936303;28;20717;-89
2022/01/26 09:12:59;;;;;;;25.73;9.55;;;;;;;2.33;69.06;98622.59;4934115;28;20199;-89
2022/01/26 09:15:28;;;;;;;26.73;9.02;;;;;;;2.32;69.07;98630.47;4936510;28;20290;-90
2022/01/26 09:18:01;;;;;;;23.55;8.80;;;;;;;2.17;69.27;98632.81;4938252;28;20685;-89
2022/01/26 09:20:27;;;;;;;20.95;8.50;;;;;;;2.14;69.78;98622.81;4919508;28;20178;-90
2022/01/26 09:22:57;;;;;;;22.33;8.65;;;;;;;2.26;69.62;98647.28;4921951;28;20287;-90
2022/01/26 09:25:22;;;;;;;22.40;9.35;;;;;;;2.34;68.59;98647.31;4922780;28;20169;-90
2022/01/26 09:27:50;;;;;;;20.95;8.13;;;;;;;2.23;68.88;98652.75;4912393;28;20204;-90
2022/01/26 09:30:18;;;;;;;25.15;8.48;;;;;;;2.05;69.11;98645.13;4945452;28;20216;-89
2022/01/26 09:32:45;;;;;;;23.40;8.93;;;;;;;2.19;68.22;98636.03;4936096;28;20169;-90
2022/01/26 09:35:11;;;;;;;21.33;8.02;;;;;;;2.29;69.00;98631.56;4937442;28;20216;-90
2022/01/26 09:37:37;;;;;;;23.30;9.45;;;;;;;2.34;68.93;98643.97;4937983;28;20285;-90
2022/01/26 09:40:03;;;;;;;27.42;9.13;;;;;;;2.18;68.57;98629.28;4936537;28;20188;-90
2022/01/26 09:42:30;;;;;;;23.67;9.20;;;;;;;2.28;68.43;98640.25;4928809;28;20555;-90
2022/01/26 09:44:56;;;;;;;22.60;9.52;;;;;;;2.20;68.69;98650.50;4962913;28;20184;-89
2022/01/26 09:47:23;;;;;;;22.70;8.68;;;;;;;2.16;69.45;98647.44;4920358;28;20319;-89
2022/01/26 09:49:50;;;;;;;20.83;8.88;;;;;;;2.01;69.02;98634.34;4925597;28;20260;-90
2022/01/26 09:52:33;;;;;;;25.77;9.13;;;;;;;2.04;69.54;98654.59;4935503;28;20797;-91
2022/01/26 09:54:59;;;;;;;21.98;9.63;;;;;;;1.96;70.06;98657.09;4933217;28;20205;-89
2022/01/26 09:57:26;;;;;;;24.02;10.10;;;;;;;2.00;70.19;98650.69;4918866;28;20156;-89
2022/01/26 09:59:53;;;;;;;24.63;9.77;;;;;;;1.98;69.95;98660.31;4926313;28;20259;-91
2022/01/26 10:02:48;;;;;;;32.20;9.52;;;;;;;1.80;70.27;98701.47;4951996;28;20198;-90
2022/01/26 10:05:17;;;;;;;34.97;9.70;;;;;;;1.64;70.77;98684.19;4935394;28;20841;-89
2022/01/26 10:08:11;;;;;;;20.02;8.45;;;;;;;1.85;70.91;98706.16;4937765;28;20190;-90
2022/01/26 10:16:53;;;;;;;24.35;9.65;;;;;;;1.97;69.18;98683.59;4953972;28;20310;-90
2022/01/26 10:18:44;;;;;;;21.77;9.30;;;;;;;2.22;69.39;98702.53;4935168;28;20721;-90
2022/01/26 10:21:10;;;;;;;20.25;8.10;;;;;;;2.24;69.17;98705.75;4939042;28;20197;-90
2022/01/26 10:23:40;;;;;;;27.35;10.13;;;;;;;2.33;69.14;98716.88;4915673;28;20660;-90
2022/01/26 10:26:12;;;;;;;23.00;9.77;;;;;;;2.27;68.46;98695.16;4913813;28;20500;-90
2022/01/26 10:28:41;;;;;;;21.40;9.18;;;;;;;2.32;69.30;98712.72;4934931;28;20260;-90
2022/01/26 10:31:19;;;;;;;23.35;10.15;;;;;;;2.17;69.25;98730.44;4933775;28;20284;-90
2022/01/26 10:34:01;;;;;;;21.40;8.80;;;;;;;2.22;69.33;98734.16;4971004;28;20424;-90
2022/01/26 10:36:35;;;;;;;21.27;8.93;;;;;;;2.18;68.65;98732.06;4945886;28;20184;-89
2022/01/26 10:39:07;;;;;;;19.85;8.50;;;;;;;2.14;69.10;98726.44;4919474;28;20200;-89
2022/01/26 10:41:35;;;;;;;21.13;8.35;;;;;;;2.29;69.09;98726.66;4935565;28;20240;-90
2022/01/26 10:44:03;;;;;;;20.35;9.18;;;;;;;2.37;68.34;98705.34;4934455;28;20216;-89
2022/01/26 10:46:40;;;;;;;21.58;8.95;;;;;;;2.25;68.88;98691.94;4950802;28;20628;-90
2022/01/26 10:54:36;;;;;;;20.55;8.60;;;;;;;2.38;68.88;98689.78;4934584;28;20200;-89
2022/01/26 10:56:54;;;;;;;21.92;8.82;;;;;;;2.27;68.76;98684.88;4935662;28;20336;-89
2022/01/26 10:59:19;;;;;;;19.90;8.95;;;;;;;2.18;68.12;98675.53;4935183;28;20765;-90
2022/01/26 11:01:46;;;;;;;22.73;8.85;;;;;;;2.17;68.71;98671.34;4935141;28;20199;-89
2022/01/26 11:04:12;;;;;;;19.17;9.38;;;;;;;2.21;68.69;98693.19;4936272;28;20602;-91
2022/01/26 11:06:43;;;;;;;24.13;10.15;;;;;;;1.99;69.29;98691.97;4933526;28;20182;-90
2022/01/26 11:09:13;;;;;;;22.25;9.57;;;;;;;2.25;69.52;98697.09;4928665;28;20118;-90
2022/01/26 11:11:40;;;;;;;24.17;9.82;;;;;;;2.23;69.63;98694.66;4917030;28;20279;-91
2022/01/26 11:14:21;;;;;;;23.83;10.52;;;;;;;2.18;69.12;98693.53;4937818;28;20284;-90
2022/01/26 11:16:53;;;;;;;21.88;9.55;;;;;;;2.34;69.13;98687.66;4934308;28;20173;-90
2022/01/26 11:19:18;;;;;;;29.58;11.90;;;;;;;2.41;68.85;98680.94;4936732;28;20321;-90
2022/01/26 11:21:44;;;;;;;25.40;12.25;;;;;;;2.44;69.12;98684.00;4937320;28;20364;-91
2022/01/26 11:24:15;;;;;;;25.30;11.30;;;;;;;2.28;68.94;98686.50;4936634;28;20679;-90
2022/01/26 11:26:42;;;;;;;24.23;11.75;;;;;;;2.30;68.68;98679.44;4931938;28;20283;-91
2022/01/26 11:29:20;;;;;;;29.08;12.32;;;;;;;2.04;69.17;98677.72;4933778;28;20214;-91
2022/01/26 11:32:00;;;;;;;26.60;10.98;;;;;;;2.09;69.31;98681.56;4945788;28;20211;-91
2022/01/26 11:34:29;;;;;;;22.55;10.95;;;;;;;2.25;68.93;98673.97;4949203;28;20649;-91
2022/01/26 11:37:00;;;;;;;23.95;11.18;;;;;;;2.25;69.61;98676.53;4951379;28;20188;-90
2022/01/26 11:42:33;;;;;;;25.50;10.48;;;;;;;2.23;69.17;98683.59;4952835;28;20206;-90
2022/01/26 11:45:16;;;;;;;22.65;10.23;;;;;;;2.23;69.29;98689.53;4920863;28;20192;-91
2022/01/26 11:47:56;;;;;;;26.05;11.02;;;;;;;2.32;68.65;98681.88;4950074;28;20710;-90
2022/01/26 11:50:21;;;;;;;26.35;11.38;;;;;;;2.34;69.13;98673.03;4944211;28;20179;-90
2022/01/26 11:53:06;;;;;;;25.67;10.38;;;;;;;2.19;69.52;98672.00;4915401;28;20285;-90
2022/01/26 11:55:45;;;;;;;27.25;10.88;;;;;;;2.30;69.25;98668.38;4938323;28;20311;-90
2022/01/26 11:58:14;;;;;;;25.10;9.90;;;;;;;2.40;68.75;98680.13;4913883;28;20083;-90
2022/01/26 12:00:51;;;;;;;25.63;10.52;;;;;;;2.34;69.07;98660.19;4935765;28;20192;-90
2022/01/26 12:03:46;;;;;;;22.20;9.82;;;;;;;2.38;69.07;98670.94;4939273;28;20269;-90
2022/01/26 12:06:19;;;;;;;29.05;10.80;;;;;;;2.42;68.67;98657.63;4934829;28;20246;-90
2022/01/26 12:08:47;;;;;;;20.45;9.02;;;;;;;2.33;69.11;98653.44;4936812;28;20196;-90
2022/01/26 12:11:17;;;;;;;24.17;9.75;;;;;;;2.30;69.00;98656.31;4936306;28;20276;-90
2022/01/26 12:13:49;;;;;;;20.42;9.43;;;;;;;2.34;68.94;98649.91;4954418;28;20191;-91
2022/01/26 12:16:18;;;;;;;21.20;9.35;;;;;;;2.43;69.32;98664.41;4938024;28;20192;-91
2022/01/26 12:18:54;;;;;;;21.42;9.70;;;;;;;2.50;68.77;98663.78;4937986;28;20645;-90
2022/01/26 12:35:40;;;;;;;29.48;11.93;;;;;;;2.42;68.94;98651.72;4953367;28;20285;-90
2022/01/26 12:43:50;;;;;;;26.52;11.18;;;;;;;2.46;68.78;98662.47;4954567;28;20192;-90
2022/01/26 12:46:18;;;;;;;26.45;11.27;;;;;;;2.55;67.72;98648.69;4946870;28;20244;-90
2022/01/26 12:48:49;;;;;;;26.98;11.25;;;;;;;2.26;69.36;98652.44;4944378;28;20200;-90
2022/01/26 12:51:15;;;;;;;29.73;12.25;;;;;;;2.54;68.12;98650.47;4931924;28;20244;-90
2022/01/26 12:53:41;;;;;;;26.02;11.32;;;;;;;2.42;68.13;98634.50;4925842;28;20130;-91
2022/01/26 12:56:09;;;;;;;25.40;12.40;;;;;;;2.45;68.88;98656.53;4967749;28;20678;-90
2022/01/26 12:58:41;;;;;;;26.75;12.63;;;;;;;2.33;69.12;98652.63;4975729;28;20165;-91
2022/01/26 13:01:17;;;;;;;34.00;11.85;;;;;;;2.28;69.43;98665.94;4933691;28;20228;-90
2022/01/26 13:03:44;;;;;;;25.05;10.73;;;;;;;2.26;69.45;98672.97;4921214;28;20177;-91
2022/01/26 13:06:22;;;;;;;23.85;11.35;;;;;;;2.33;69.36;98676.56;4969945;28;20224;-91
2022/01/26 13:08:53;;;;;;;28.98;13.07;;;;;;;2.43;68.98;98676.44;4916726;28;20252;-90
2022/01/26 13:11:25;;;;;;;27.42;11.80;;;;;;;2.28;69.08;98680.53;4934545;28;20242;-90
2022/01/26 13:14:16;;;;;;;27.88;11.82;;;;;;;2.21;69.33;98672.63;4936011;28;20168;-91
2022/01/26 13:16:54;;;;;;;25.05;12.00;;;;;;;2.37;68.64;98665.00;4959119;28;20267;-91
2022/01/26 13:19:37;;;;;;;27.30;11.18;;;;;;;2.62;68.66;98652.22;4935338;28;20181;-90
2022/01/26 13:25:01;;;;;;;26.48;12.60;;;;;;;2.57;68.48;98675.84;4952165;28;20220;-91
2022/01/26 13:27:37;;;;;;;;;;;;;;;2.32;69.50;98687.81;4935014;28;20158;-90
2022/01/26 13:33:10;;;;;;;24.35;11.60;;;;;;;2.51;68.85;98701.38;4948365;28;20812;-90
2022/01/26 13:35:46;;;;;;;26.20;11.25;;;;;;;2.63;69.50;98695.78;4933471;28;20638;-90
2022/01/26 13:40:55;;;;;;;28.60;13.00;;;;;;;2.59;69.50;98699.66;4936275;28;20192;-90
2022/01/26 13:51:57;;;;;;;27.95;10.68;;;;;;;2.66;68.80;98699.84;4951276;28;20216;-90
2022/01/26 13:54:30;;;;;;;25.85;11.15;;;;;;;2.71;69.26;98697.59;4935712;28;20707;-91
2022/01/26 13:57:15;;;;;;;30.13;11.25;;;;;;;2.72;68.81;98704.34;4951919;28;20279;-90
2022/01/26 13:59:46;;;;;;;32.53;11.98;;;;;;;2.65;69.24;98705.13;4935018;28;20184;-90
2022/01/26 14:02:12;;;;;;;28.20;11.85;;;;;;;2.70;68.57;98711.41;4928178;28;20309;-91
2022/01/26 14:04:38;;;;;;;28.20;12.00;;;;;;;2.73;68.46;98711.09;4935101;28;20273;-90
2022/01/26 14:07:03;;;;;;;27.35;11.52;;;;;;;2.66;68.69;98710.13;4952739;28;20286;-91
2022/01/26 14:09:29;;;;;;;30.42;11.57;;;;;;;2.52;68.73;98702.97;4915279;28;20241;-91
2022/01/26 14:11:54;;;;;;;28.98;12.50;;;;;;;2.62;68.61;98706.22;4911776;28;20180;-90
2022/01/26 14:14:32;;;;;;;29.83;11.60;;;;;;;2.74;68.97;98696.47;4935344;28;20169;-90